sensor_id;sensor_type;location;lat;lon;timestamp;temperature;humidity
54960;DHT22;40860;51.710;8.736;2023-02-15T00:00:12;2.10;99.90
54960;DHT22;40860;51.710;8.736;2023-02-15T00:04:18;1.90;99.90
54960;DHT22;40860;51.710;8.736;2023-02-15T00:08:21;1.90;99.90
54960;DHT22;40860;51.710;8.736;2023-02-15T00:12:26;2.00;99.90
54960;DHT22;40860;51.710;8.736;2023-02-15T00:16:29;2.00;99.90
54960;DHT22;40860;51.710;8.736;2023-02-15T00:20:32;1.90;99.90
54960;DHT22;40860;51.710;8.736;2023-02-15T00:24:37;1.80;99.90
54960;DHT22;40860;51.710;8.736;2023-02-15T00:28:43;1.70;99.90
54960;DHT22;40860;51.710;8.736;2023-02-15T00:32:47;1.70;99.90
54960;DHT22;40860;51.710;8.736;2023-02-15T00:36:50;1.70;99.90
54960;DHT22;40860;51.710;8.736;2023-02-15T00:40:53;1.70;99.90
54960;DHT22;40860;51.710;8.736;2023-02-15T00:44:57;1.70;99.90
54960;DHT22;40860;51.710;8.736;2023-02-15T00:49:03;1.70;99.90
54960;DHT22;40860;51.710;8.736;2023-02-15T00:53:06;1.70;99.90
54960;DHT22;40860;51.710;8.736;2023-02-15T00:57:09;1.70;99.90
54960;DHT22;40860;51.710;8.736;2023-02-15T01:01:15;1.80;99.90
54960;DHT22;40860;51.710;8.736;2023-02-15T01:05:19;1.80;99.90
54960;DHT22;40860;51.710;8.736;2023-02-15T01:09:21;1.60;99.90
54960;DHT22;40860;51.710;8.736;2023-02-15T01:13:24;1.60;99.90
54960;DHT22;40860;51.710;8.736;2023-02-15T01:17:30;1.50;99.90
54960;DHT22;40860;51.710;8.736;2023-02-15T01:21:33;1.40;99.90
54960;DHT22;40860;51.710;8.736;2023-02-15T01:25:37;1.40;99.90
54960;DHT22;40860;51.710;8.736;2023-02-15T01:29:39;1.30;99.90
54960;DHT22;40860;51.710;8.736;2023-02-15T01:33:44;1.30;99.90
54960;DHT22;40860;51.710;8.736;2023-02-15T01:37:47;1.30;99.90
54960;DHT22;40860;51.710;8.736;2023-02-15T01:41:52;1.30;99.90
54960;DHT22;40860;51.710;8.736;2023-02-15T01:45:54;1.30;99.90
54960;DHT22;40860;51.710;8.736;2023-02-15T01:50:03;1.30;99.90
54960;DHT22;40860;51.710;8.736;2023-02-15T01:54:11;1.20;99.90
54960;DHT22;40860;51.710;8.736;2023-02-15T01:58:14;1.20;99.90
54960;DHT22;40860;51.710;8.736;2023-02-15T02:02:18;1.20;99.90
54960;DHT22;40860;51.710;8.736;2023-02-15T02:06:24;1.10;99.90
54960;DHT22;40860;51.710;8.736;2023-02-15T02:10:28;0.90;99.90
54960;DHT22;40860;51.710;8.736;2023-02-15T02:14:31;0.80;99.90
54960;DHT22;40860;51.710;8.736;2023-02-15T02:18:44;0.80;99.90
54960;DHT22;40860;51.710;8.736;2023-02-15T02:23:15;0.70;99.90
54960;DHT22;40860;51.710;8.736;2023-02-15T02:27:29;0.70;99.90
54960;DHT22;40860;51.710;8.736;2023-02-15T02:31:53;0.70;99.90
54960;DHT22;40860;51.710;8.736;2023-02-15T02:36:07;0.70;99.90
54960;DHT22;40860;51.710;8.736;2023-02-15T02:40:14;0.70;99.90
54960;DHT22;40860;51.710;8.736;2023-02-15T02:44:24;0.60;99.90
54960;DHT22;40860;51.710;8.736;2023-02-15T02:48:30;0.50;99.90
54960;DHT22;40860;51.710;8.736;2023-02-15T02:52:39;0.50;99.90
54960;DHT22;40860;51.710;8.736;2023-02-15T02:56:43;0.50;99.90
54960;DHT22;40860;51.710;8.736;2023-02-15T03:00:52;0.50;99.90
54960;DHT22;40860;51.710;8.736;2023-02-15T03:05:00;0.50;99.90
54960;DHT22;40860;51.710;8.736;2023-02-15T03:09:11;0.60;99.90
54960;DHT22;40860;51.710;8.736;2023-02-15T03:13:16;0.50;99.90
54960;DHT22;40860;51.710;8.736;2023-02-15T03:17:23;0.50;99.90
54960;DHT22;40860;51.710;8.736;2023-02-15T03:21:32;0.40;99.90
54960;DHT22;40860;51.710;8.736;2023-02-15T03:25:44;0.40;99.90
54960;DHT22;40860;51.710;8.736;2023-02-15T03:29:53;0.50;99.90
54960;DHT22;40860;51.710;8.736;2023-02-15T03:33:59;0.60;99.90
54960;DHT22;40860;51.710;8.736;2023-02-15T03:38:03;0.70;99.90
54960;DHT22;40860;51.710;8.736;2023-02-15T03:42:13;1.00;99.90
54960;DHT22;40860;51.710;8.736;2023-02-15T03:46:22;1.30;99.90
54960;DHT22;40860;51.710;8.736;2023-02-15T03:50:29;1.40;99.90
54960;DHT22;40860;51.710;8.736;2023-02-15T03:54:50;1.40;99.90
54960;DHT22;40860;51.710;8.736;2023-02-15T03:58:54;1.30;99.90
54960;DHT22;40860;51.710;8.736;2023-02-15T04:03:27;1.30;99.90
54960;DHT22;40860;51.710;8.736;2023-02-15T04:07:33;1.20;99.90
54960;DHT22;40860;51.710;8.736;2023-02-15T04:11:36;1.30;99.90
54960;DHT22;40860;51.710;8.736;2023-02-15T04:15:40;1.40;99.90
54960;DHT22;40860;51.710;8.736;2023-02-15T04:20:01;1.50;99.90
54960;DHT22;40860;51.710;8.736;2023-02-15T04:24:22;1.50;99.90
54960;DHT22;40860;51.710;8.736;2023-02-15T04:28:42;1.50;99.90
54960;DHT22;40860;51.710;8.736;2023-02-15T04:32:46;1.40;99.90
54960;DHT22;40860;51.710;8.736;2023-02-15T04:36:49;1.40;99.90
54960;DHT22;40860;51.710;8.736;2023-02-15T04:40:52;1.30;99.90
54960;DHT22;40860;51.710;8.736;2023-02-15T04:44:55;1.20;99.90
54960;DHT22;40860;51.710;8.736;2023-02-15T04:48:59;1.10;99.90
54960;DHT22;40860;51.710;8.736;2023-02-15T04:53:02;1.00;99.90
54960;DHT22;40860;51.710;8.736;2023-02-15T04:57:05;1.00;99.90
54960;DHT22;40860;51.710;8.736;2023-02-15T05:01:08;1.10;99.90
54960;DHT22;40860;51.710;8.736;2023-02-15T05:05:13;1.20;99.90
54960;DHT22;40860;51.710;8.736;2023-02-15T05:09:17;1.10;99.90
54960;DHT22;40860;51.710;8.736;2023-02-15T05:13:19;1.10;99.90
54960;DHT22;40860;51.710;8.736;2023-02-15T05:17:22;1.00;99.90
54960;DHT22;40860;51.710;8.736;2023-02-15T05:21:28;0.90;99.90
54960;DHT22;40860;51.710;8.736;2023-02-15T05:25:31;0.90;99.90
54960;DHT22;40860;51.710;8.736;2023-02-15T05:29:56;0.80;99.90
54960;DHT22;40860;51.710;8.736;2023-02-15T05:33:59;0.80;99.90
54960;DHT22;40860;51.710;8.736;2023-02-15T05:38:03;0.80;99.90
54960;DHT22;40860;51.710;8.736;2023-02-15T05:42:06;0.70;99.90
54960;DHT22;40860;51.710;8.736;2023-02-15T05:46:09;0.60;99.90
54960;DHT22;40860;51.710;8.736;2023-02-15T05:50:15;0.60;99.90
54960;DHT22;40860;51.710;8.736;2023-02-15T05:54:20;0.60;99.90
54960;DHT22;40860;51.710;8.736;2023-02-15T05:58:23;0.80;99.90
54960;DHT22;40860;51.710;8.736;2023-02-15T06:02:25;0.90;99.90
54960;DHT22;40860;51.710;8.736;2023-02-15T06:06:28;0.80;99.90
54960;DHT22;40860;51.710;8.736;2023-02-15T06:10:32;0.80;99.90
54960;DHT22;40860;51.710;8.736;2023-02-15T06:14:35;0.90;99.90
54960;DHT22;40860;51.710;8.736;2023-02-15T06:18:38;1.00;99.90
54960;DHT22;40860;51.710;8.736;2023-02-15T06:22:42;1.00;99.90
54960;DHT22;40860;51.710;8.736;2023-02-15T06:26:46;1.00;99.90
54960;DHT22;40860;51.710;8.736;2023-02-15T06:30:54;1.00;99.90
54960;DHT22;40860;51.710;8.736;2023-02-15T06:34:57;1.00;99.90
54960;DHT22;40860;51.710;8.736;2023-02-15T06:39:00;1.00;99.90
54960;DHT22;40860;51.710;8.736;2023-02-15T06:43:05;0.90;99.90
54960;DHT22;40860;51.710;8.736;2023-02-15T06:47:08;0.80;99.90
54960;DHT22;40860;51.710;8.736;2023-02-15T06:51:12;0.70;99.90
54960;DHT22;40860;51.710;8.736;2023-02-15T06:55:15;0.70;99.90
54960;DHT22;40860;51.710;8.736;2023-02-15T06:59:20;0.80;99.90
54960;DHT22;40860;51.710;8.736;2023-02-15T07:03:23;0.70;99.90
54960;DHT22;40860;51.710;8.736;2023-02-15T07:07:26;0.70;99.90
54960;DHT22;40860;51.710;8.736;2023-02-15T07:11:30;0.80;99.90
54960;DHT22;40860;51.710;8.736;2023-02-15T07:15:51;0.80;99.90
54960;DHT22;40860;51.710;8.736;2023-02-15T07:19:54;0.90;99.90
54960;DHT22;40860;51.710;8.736;2023-02-15T07:23:57;1.00;99.90
54960;DHT22;40860;51.710;8.736;2023-02-15T07:32:06;1.00;99.90
54960;DHT22;40860;51.710;8.736;2023-02-15T07:36:09;1.20;99.90
54960;DHT22;40860;51.710;8.736;2023-02-15T07:40:13;2.10;99.90
54960;DHT22;40860;51.710;8.736;2023-02-15T07:48:21;2.90;99.90
54960;DHT22;40860;51.710;8.736;2023-02-15T07:52:26;3.20;99.90
54960;DHT22;40860;51.710;8.736;2023-02-15T07:56:29;3.30;99.70
54960;DHT22;40860;51.710;8.736;2023-02-15T08:00:34;3.40;99.00
54960;DHT22;40860;51.710;8.736;2023-02-15T08:04:59;3.40;98.70
54960;DHT22;40860;51.710;8.736;2023-02-15T08:09:03;3.50;98.90
54960;DHT22;40860;51.710;8.736;2023-02-15T08:13:06;3.60;98.80
54960;DHT22;40860;51.710;8.736;2023-02-15T08:17:09;3.80;98.50
54960;DHT22;40860;51.710;8.736;2023-02-15T08:21:13;3.90;97.70
54960;DHT22;40860;51.710;8.736;2023-02-15T08:25:16;3.90;97.40
54960;DHT22;40860;51.710;8.736;2023-02-15T08:29:20;4.10;97.10
54960;DHT22;40860;51.710;8.736;2023-02-15T08:33:24;4.40;97.30
54960;DHT22;40860;51.710;8.736;2023-02-15T08:37:38;4.80;96.10
54960;DHT22;40860;51.710;8.736;2023-02-15T08:41:43;5.30;96.20
54960;DHT22;40860;51.710;8.736;2023-02-15T08:45:46;5.80;96.00
54960;DHT22;40860;51.710;8.736;2023-02-15T08:49:49;6.10;94.00
54960;DHT22;40860;51.710;8.736;2023-02-15T08:53:55;6.50;92.80
54960;DHT22;40860;51.710;8.736;2023-02-15T08:57:58;6.80;92.50
54960;DHT22;40860;51.710;8.736;2023-02-15T09:02:01;7.00;90.70
54960;DHT22;40860;51.710;8.736;2023-02-15T09:06:05;7.00;90.60
54960;DHT22;40860;51.710;8.736;2023-02-15T09:10:10;7.10;90.60
54960;DHT22;40860;51.710;8.736;2023-02-15T09:14:14;7.20;88.80
54960;DHT22;40860;51.710;8.736;2023-02-15T09:18:17;7.40;90.20
54960;DHT22;40860;51.710;8.736;2023-02-15T09:22:20;7.60;88.00
54960;DHT22;40860;51.710;8.736;2023-02-15T09:26:26;7.70;86.20
54960;DHT22;40860;51.710;8.736;2023-02-15T09:30:29;7.70;87.40
54960;DHT22;40860;51.710;8.736;2023-02-15T09:34:32;8.00;86.00
54960;DHT22;40860;51.710;8.736;2023-02-15T09:38:36;8.30;85.40
54960;DHT22;40860;51.710;8.736;2023-02-15T09:42:59;8.90;82.80
54960;DHT22;40860;51.710;8.736;2023-02-15T09:47:23;9.40;81.60
54960;DHT22;40860;51.710;8.736;2023-02-15T09:56:06;9.90;77.60
54960;DHT22;40860;51.710;8.736;2023-02-15T10:00:24;10.30;76.30
54960;DHT22;40860;51.710;8.736;2023-02-15T10:04:41;10.50;75.80
54960;DHT22;40860;51.710;8.736;2023-02-15T10:08:57;10.50;72.00
54960;DHT22;40860;51.710;8.736;2023-02-15T10:13:18;10.50;72.60
54960;DHT22;40860;51.710;8.736;2023-02-15T10:17:35;10.50;73.40
54960;DHT22;40860;51.710;8.736;2023-02-15T10:21:50;10.40;73.20
54960;DHT22;40860;51.710;8.736;2023-02-15T10:26:01;10.30;74.30
54960;DHT22;40860;51.710;8.736;2023-02-15T10:30:10;10.30;74.60
54960;DHT22;40860;51.710;8.736;2023-02-15T10:34:19;10.10;74.80
54960;DHT22;40860;51.710;8.736;2023-02-15T10:38:28;10.20;76.20
54960;DHT22;40860;51.710;8.736;2023-02-15T10:42:47;10.20;73.50
54960;DHT22;40860;51.710;8.736;2023-02-15T10:52:07;10.20;75.40
54960;DHT22;40860;51.710;8.736;2023-02-15T10:56:20;10.10;76.00
54960;DHT22;40860;51.710;8.736;2023-02-15T11:00:30;10.30;76.10
54960;DHT22;40860;51.710;8.736;2023-02-15T11:04:51;10.40;75.20
54960;DHT22;40860;51.710;8.736;2023-02-15T11:09:01;10.40;75.50
54960;DHT22;40860;51.710;8.736;2023-02-15T11:13:09;10.30;75.80
54960;DHT22;40860;51.710;8.736;2023-02-15T11:17:17;10.30;75.50
54960;DHT22;40860;51.710;8.736;2023-02-15T11:21:22;10.50;76.10
54960;DHT22;40860;51.710;8.736;2023-02-15T11:29:35;10.70;78.90
54960;DHT22;40860;51.710;8.736;2023-02-15T11:33:44;10.90;88.00
54960;DHT22;40860;51.710;8.736;2023-02-15T11:37:51;10.90;75.40
54960;DHT22;40860;51.710;8.736;2023-02-15T11:42:01;10.90;76.10
54960;DHT22;40860;51.710;8.736;2023-02-15T11:46:05;11.00;75.20
54960;DHT22;40860;51.710;8.736;2023-02-15T11:50:11;11.10;76.00
54960;DHT22;40860;51.710;8.736;2023-02-15T11:54:15;11.30;75.30
54960;DHT22;40860;51.710;8.736;2023-02-15T11:58:28;11.30;74.20
54960;DHT22;40860;51.710;8.736;2023-02-15T12:02:33;11.30;75.10
54960;DHT22;40860;51.710;8.736;2023-02-15T12:06:44;11.30;75.00
54960;DHT22;40860;51.710;8.736;2023-02-15T12:10:58;11.40;75.20
54960;DHT22;40860;51.710;8.736;2023-02-15T12:15:07;11.50;74.40
54960;DHT22;40860;51.710;8.736;2023-02-15T12:19:29;11.60;74.90
54960;DHT22;40860;51.710;8.736;2023-02-15T12:23:34;11.70;74.40
54960;DHT22;40860;51.710;8.736;2023-02-15T12:27:43;11.80;74.00
54960;DHT22;40860;51.710;8.736;2023-02-15T12:31:49;11.80;73.50
54960;DHT22;40860;51.710;8.736;2023-02-15T12:36:00;11.80;73.70
54960;DHT22;40860;51.710;8.736;2023-02-15T12:40:20;12.00;73.60
54960;DHT22;40860;51.710;8.736;2023-02-15T12:44:24;12.00;72.60
54960;DHT22;40860;51.710;8.736;2023-02-15T12:48:29;11.90;72.70
54960;DHT22;40860;51.710;8.736;2023-02-15T12:52:32;12.00;72.10
54960;DHT22;40860;51.710;8.736;2023-02-15T12:56:34;12.10;71.90
54960;DHT22;40860;51.710;8.736;2023-02-15T13:00:38;12.00;71.10
54960;DHT22;40860;51.710;8.736;2023-02-15T13:04:47;12.10;71.00
54960;DHT22;40860;51.710;8.736;2023-02-15T13:08:52;12.10;71.60
54960;DHT22;40860;51.710;8.736;2023-02-15T13:12:56;12.10;71.20
54960;DHT22;40860;51.710;8.736;2023-02-15T13:17:01;12.20;71.30
54960;DHT22;40860;51.710;8.736;2023-02-15T13:21:13;12.10;71.00
54960;DHT22;40860;51.710;8.736;2023-02-15T13:25:19;12.10;72.80
54960;DHT22;40860;51.710;8.736;2023-02-15T13:29:26;12.10;72.50
54960;DHT22;40860;51.710;8.736;2023-02-15T13:33:34;12.30;74.00
54960;DHT22;40860;51.710;8.736;2023-02-15T13:38:02;12.40;73.20
54960;DHT22;40860;51.710;8.736;2023-02-15T13:42:17;12.30;73.20
54960;DHT22;40860;51.710;8.736;2023-02-15T13:46:42;12.40;73.60
54960;DHT22;40860;51.710;8.736;2023-02-15T13:50:55;12.40;74.60
54960;DHT22;40860;51.710;8.736;2023-02-15T13:55:23;12.50;73.60
54960;DHT22;40860;51.710;8.736;2023-02-15T13:59:39;12.50;73.50
54960;DHT22;40860;51.710;8.736;2023-02-15T14:04:19;12.60;74.30
54960;DHT22;40860;51.710;8.736;2023-02-15T14:08:37;12.60;73.70
54960;DHT22;40860;51.710;8.736;2023-02-15T14:12:53;12.50;74.00
54960;DHT22;40860;51.710;8.736;2023-02-15T14:17:02;12.40;74.50
54960;DHT22;40860;51.710;8.736;2023-02-15T14:21:12;12.40;74.40
54960;DHT22;40860;51.710;8.736;2023-02-15T14:25:22;12.40;74.40
54960;DHT22;40860;51.710;8.736;2023-02-15T14:29:42;12.30;73.80
54960;DHT22;40860;51.710;8.736;2023-02-15T14:33:53;12.20;74.20
54960;DHT22;40860;51.710;8.736;2023-02-15T14:38:02;12.10;74.40
54960;DHT22;40860;51.710;8.736;2023-02-15T14:42:12;11.90;74.50
54960;DHT22;40860;51.710;8.736;2023-02-15T14:46:24;11.90;75.30
54960;DHT22;40860;51.710;8.736;2023-02-15T14:50:46;11.70;75.50
54960;DHT22;40860;51.710;8.736;2023-02-15T14:54:59;11.70;76.30
54960;DHT22;40860;51.710;8.736;2023-02-15T14:59:17;11.70;76.60
54960;DHT22;40860;51.710;8.736;2023-02-15T15:03:24;11.70;76.30
54960;DHT22;40860;51.710;8.736;2023-02-15T15:07:37;11.50;76.10
54960;DHT22;40860;51.710;8.736;2023-02-15T15:11:46;11.40;76.90
54960;DHT22;40860;51.710;8.736;2023-02-15T15:15:53;11.30;77.10
54960;DHT22;40860;51.710;8.736;2023-02-15T15:20:00;11.20;77.20
54960;DHT22;40860;51.710;8.736;2023-02-15T15:24:05;11.10;77.80
54960;DHT22;40860;51.710;8.736;2023-02-15T15:28:08;10.90;77.80
54960;DHT22;40860;51.710;8.736;2023-02-15T15:32:22;10.90;79.00
54960;DHT22;40860;51.710;8.736;2023-02-15T15:41:17;10.90;79.20
54960;DHT22;40860;51.710;8.736;2023-02-15T15:45:43;10.70;79.90
54960;DHT22;40860;51.710;8.736;2023-02-15T15:49:55;10.70;80.40
54960;DHT22;40860;51.710;8.736;2023-02-15T15:53:58;10.60;81.50
54960;DHT22;40860;51.710;8.736;2023-02-15T15:58:06;10.50;81.50
54960;DHT22;40860;51.710;8.736;2023-02-15T16:02:13;10.40;81.30
54960;DHT22;40860;51.710;8.736;2023-02-15T16:06:27;10.20;82.10
54960;DHT22;40860;51.710;8.736;2023-02-15T16:10:32;10.10;83.70
54960;DHT22;40860;51.710;8.736;2023-02-15T16:14:38;9.90;84.10
54960;DHT22;40860;51.710;8.736;2023-02-15T16:18:42;9.70;84.50
54960;DHT22;40860;51.710;8.736;2023-02-15T16:22:46;9.60;85.30
54960;DHT22;40860;51.710;8.736;2023-02-15T16:27:16;9.40;85.70
54960;DHT22;40860;51.710;8.736;2023-02-15T16:31:23;9.20;86.60
54960;DHT22;40860;51.710;8.736;2023-02-15T16:35:27;9.00;86.70
54960;DHT22;40860;51.710;8.736;2023-02-15T16:39:32;8.80;87.60
54960;DHT22;40860;51.710;8.736;2023-02-15T16:47:50;8.50;88.40
54960;DHT22;40860;51.710;8.736;2023-02-15T16:51:57;8.30;89.40
54960;DHT22;40860;51.710;8.736;2023-02-15T16:56:03;8.20;89.80
54960;DHT22;40860;51.710;8.736;2023-02-15T17:00:17;8.00;90.20
54960;DHT22;40860;51.710;8.736;2023-02-15T17:04:30;7.90;90.40
54960;DHT22;40860;51.710;8.736;2023-02-15T17:08:41;7.70;90.80
54960;DHT22;40860;51.710;8.736;2023-02-15T17:12:46;7.60;90.90
54960;DHT22;40860;51.710;8.736;2023-02-15T17:16:53;7.50;91.20
54960;DHT22;40860;51.710;8.736;2023-02-15T17:21:01;7.30;91.60
54960;DHT22;40860;51.710;8.736;2023-02-15T17:25:19;7.20;92.00
54960;DHT22;40860;51.710;8.736;2023-02-15T17:29:30;7.10;91.80
54960;DHT22;40860;51.710;8.736;2023-02-15T17:33:38;7.00;92.00
54960;DHT22;40860;51.710;8.736;2023-02-15T17:37:45;6.90;92.60
54960;DHT22;40860;51.710;8.736;2023-02-15T17:41:48;6.70;92.60
54960;DHT22;40860;51.710;8.736;2023-02-15T17:45:54;6.70;92.90
54960;DHT22;40860;51.710;8.736;2023-02-15T17:50:01;6.70;93.00
54960;DHT22;40860;51.710;8.736;2023-02-15T17:54:08;6.70;92.90
54960;DHT22;40860;51.710;8.736;2023-02-15T17:58:30;6.60;92.90
54960;DHT22;40860;51.710;8.736;2023-02-15T18:02:34;6.50;93.10
54960;DHT22;40860;51.710;8.736;2023-02-15T18:06:56;6.40;93.40
54960;DHT22;40860;51.710;8.736;2023-02-15T18:11:18;6.30;93.60
54960;DHT22;40860;51.710;8.736;2023-02-15T18:15:36;6.30;93.50
54960;DHT22;40860;51.710;8.736;2023-02-15T18:19:40;6.30;93.50
54960;DHT22;40860;51.710;8.736;2023-02-15T18:23:43;6.20;93.60
54960;DHT22;40860;51.710;8.736;2023-02-15T18:27:47;6.20;93.50
54960;DHT22;40860;51.710;8.736;2023-02-15T18:31:52;6.10;93.60
54960;DHT22;40860;51.710;8.736;2023-02-15T18:35:57;6.10;93.80
54960;DHT22;40860;51.710;8.736;2023-02-15T18:40:01;6.10;93.70
54960;DHT22;40860;51.710;8.736;2023-02-15T18:44:10;6.00;93.70
54960;DHT22;40860;51.710;8.736;2023-02-15T18:48:13;6.00;93.80
54960;DHT22;40860;51.710;8.736;2023-02-15T18:52:19;5.90;93.70
54960;DHT22;40860;51.710;8.736;2023-02-15T18:56:22;5.90;93.70
54960;DHT22;40860;51.710;8.736;2023-02-15T19:00:28;5.80;93.80
54960;DHT22;40860;51.710;8.736;2023-02-15T19:04:32;5.80;93.90
54960;DHT22;40860;51.710;8.736;2023-02-15T19:08:35;5.70;94.00
54960;DHT22;40860;51.710;8.736;2023-02-15T19:12:38;5.70;94.10
54960;DHT22;40860;51.710;8.736;2023-02-15T19:16:43;5.60;94.20
54960;DHT22;40860;51.710;8.736;2023-02-15T19:20:46;5.50;94.20
54960;DHT22;40860;51.710;8.736;2023-02-15T19:24:50;5.50;94.20
54960;DHT22;40860;51.710;8.736;2023-02-15T19:28:53;5.50;94.20
54960;DHT22;40860;51.710;8.736;2023-02-15T19:32:59;5.40;94.20
54960;DHT22;40860;51.710;8.736;2023-02-15T19:37:04;5.40;94.30
54960;DHT22;40860;51.710;8.736;2023-02-15T19:41:17;5.30;94.30
54960;DHT22;40860;51.710;8.736;2023-02-15T19:45:22;5.30;94.30
54960;DHT22;40860;51.710;8.736;2023-02-15T19:49:26;5.30;94.40
54960;DHT22;40860;51.710;8.736;2023-02-15T19:53:29;5.30;94.50
54960;DHT22;40860;51.710;8.736;2023-02-15T19:57:33;5.20;94.40
54960;DHT22;40860;51.710;8.736;2023-02-15T20:01:36;5.10;94.60
54960;DHT22;40860;51.710;8.736;2023-02-15T20:05:42;5.10;94.70
54960;DHT22;40860;51.710;8.736;2023-02-15T20:09:45;5.10;94.80
54960;DHT22;40860;51.710;8.736;2023-02-15T20:13:48;5.10;94.80
54960;DHT22;40860;51.710;8.736;2023-02-15T20:17:52;5.00;94.80
54960;DHT22;40860;51.710;8.736;2023-02-15T20:21:56;5.00;94.70
54960;DHT22;40860;51.710;8.736;2023-02-15T20:26:01;4.90;94.80
54960;DHT22;40860;51.710;8.736;2023-02-15T20:30:13;4.80;95.30
54960;DHT22;40860;51.710;8.736;2023-02-15T20:34:16;4.80;95.20
54960;DHT22;40860;51.710;8.736;2023-02-15T20:38:21;4.70;95.40
54960;DHT22;40860;51.710;8.736;2023-02-15T20:42:25;4.70;95.60
54960;DHT22;40860;51.710;8.736;2023-02-15T20:46:28;4.60;95.70
54960;DHT22;40860;51.710;8.736;2023-02-15T20:50:33;4.60;95.60
54960;DHT22;40860;51.710;8.736;2023-02-15T20:54:37;4.60;95.70
54960;DHT22;40860;51.710;8.736;2023-02-15T20:58:40;4.50;96.00
54960;DHT22;40860;51.710;8.736;2023-02-15T21:02:44;4.40;96.10
54960;DHT22;40860;51.710;8.736;2023-02-15T21:06:48;4.30;96.30
54960;DHT22;40860;51.710;8.736;2023-02-15T21:10:53;4.10;96.50
54960;DHT22;40860;51.710;8.736;2023-02-15T21:14:56;4.00;96.60
54960;DHT22;40860;51.710;8.736;2023-02-15T21:18:59;3.90;96.80
54960;DHT22;40860;51.710;8.736;2023-02-15T21:23:03;3.90;97.10
54960;DHT22;40860;51.710;8.736;2023-02-15T21:27:11;3.90;97.50
54960;DHT22;40860;51.710;8.736;2023-02-15T21:31:15;4.00;97.60
54960;DHT22;40860;51.710;8.736;2023-02-15T21:35:19;4.10;97.40
54960;DHT22;40860;51.710;8.736;2023-02-15T21:39:25;4.10;97.00
54960;DHT22;40860;51.710;8.736;2023-02-15T21:43:29;4.00;96.90
54960;DHT22;40860;51.710;8.736;2023-02-15T21:47:50;4.00;96.90
54960;DHT22;40860;51.710;8.736;2023-02-15T21:51:52;3.90;96.90
54960;DHT22;40860;51.710;8.736;2023-02-15T21:56:16;3.90;97.00
54960;DHT22;40860;51.710;8.736;2023-02-15T22:00:21;3.90;97.10
54960;DHT22;40860;51.710;8.736;2023-02-15T22:04:26;3.80;97.10
54960;DHT22;40860;51.710;8.736;2023-02-15T22:08:31;3.90;97.30
54960;DHT22;40860;51.710;8.736;2023-02-15T22:12:35;3.90;97.30
54960;DHT22;40860;51.710;8.736;2023-02-15T22:16:39;3.90;97.30
54960;DHT22;40860;51.710;8.736;2023-02-15T22:20:42;3.80;97.10
54960;DHT22;40860;51.710;8.736;2023-02-15T22:24:45;3.70;97.60
54960;DHT22;40860;51.710;8.736;2023-02-15T22:28:48;3.60;97.80
54960;DHT22;40860;51.710;8.736;2023-02-15T22:32:53;3.50;97.90
54960;DHT22;40860;51.710;8.736;2023-02-15T22:36:57;3.50;98.00
54960;DHT22;40860;51.710;8.736;2023-02-15T22:41:04;3.50;98.30
54960;DHT22;40860;51.710;8.736;2023-02-15T22:45:15;3.40;98.10
54960;DHT22;40860;51.710;8.736;2023-02-15T22:49:20;3.40;98.10
54960;DHT22;40860;51.710;8.736;2023-02-15T22:53:23;3.30;98.40
54960;DHT22;40860;51.710;8.736;2023-02-15T22:57:28;3.20;98.60
54960;DHT22;40860;51.710;8.736;2023-02-15T23:01:34;3.20;98.90
54960;DHT22;40860;51.710;8.736;2023-02-15T23:05:38;3.20;99.20
54960;DHT22;40860;51.710;8.736;2023-02-15T23:09:42;3.30;99.20
54960;DHT22;40860;51.710;8.736;2023-02-15T23:13:47;3.40;99.30
54960;DHT22;40860;51.710;8.736;2023-02-15T23:17:50;3.60;99.40
54960;DHT22;40860;51.710;8.736;2023-02-15T23:21:54;3.90;99.30
54960;DHT22;40860;51.710;8.736;2023-02-15T23:25:57;4.20;99.20
54960;DHT22;40860;51.710;8.736;2023-02-15T23:30:01;4.50;98.90
54960;DHT22;40860;51.710;8.736;2023-02-15T23:34:13;4.70;98.50
54960;DHT22;40860;51.710;8.736;2023-02-15T23:38:23;4.90;98.10
54960;DHT22;40860;51.710;8.736;2023-02-15T23:42:29;4.90;97.80
54960;DHT22;40860;51.710;8.736;2023-02-15T23:46:38;5.00;97.70
54960;DHT22;40860;51.710;8.736;2023-02-15T23:50:42;5.10;97.50
54960;DHT22;40860;51.710;8.736;2023-02-15T23:54:46;5.10;97.40
54960;DHT22;40860;51.710;8.736;2023-02-15T23:58:49;5.20;97.40
